createdAt,value
2022-12-09T00:00:13.120Z,1.83
2022-12-09T00:02:40.112Z,1.60
2022-12-09T00:05:06.997Z,1.80
2022-12-09T00:07:35.040Z,1.83
2022-12-09T00:10:01.973Z,1.60
2022-12-09T00:12:28.529Z,1.43
2022-12-09T00:14:55.116Z,1.53
2022-12-09T00:17:21.748Z,2.00
2022-12-09T00:19:48.342Z,1.40
2022-12-09T00:22:14.897Z,1.77
2022-12-09T00:24:41.491Z,1.80
2022-12-09T00:27:08.255Z,2.40
2022-12-09T00:29:34.870Z,2.10
2022-12-09T00:32:01.465Z,2.17
2022-12-09T00:34:28.074Z,2.20
2022-12-09T00:36:54.579Z,1.90
2022-12-09T00:39:21.410Z,2.00
2022-12-09T00:41:49.892Z,2.10
2022-12-09T00:44:16.399Z,2.37
2022-12-09T00:46:43.294Z,2.13
2022-12-09T00:49:10.650Z,2.10
2022-12-09T00:51:37.529Z,2.10
2022-12-09T00:54:04.184Z,1.70
2022-12-09T00:56:31.434Z,1.80
2022-12-09T00:58:58.699Z,1.90
2022-12-09T01:01:25.847Z,1.90
2022-12-09T01:03:52.711Z,2.10
2022-12-09T01:06:21.082Z,2.00
2022-12-09T01:08:47.735Z,1.90
2022-12-09T01:11:21.550Z,2.10
2022-12-09T01:13:48.870Z,2.50
2022-12-09T01:16:23.767Z,2.83
2022-12-09T01:18:51.369Z,3.40
2022-12-09T01:21:18.344Z,3.13
2022-12-09T01:23:45.299Z,3.03
2022-12-09T01:26:12.050Z,2.60
2022-12-09T01:28:39.608Z,2.70
2022-12-09T01:31:07.560Z,3.13
2022-12-09T01:33:34.193Z,3.00
2022-12-09T01:36:01.069Z,2.83
2022-12-09T01:38:27.750Z,2.90
2022-12-09T01:40:54.651Z,3.23
2022-12-09T01:43:21.518Z,2.80
2022-12-09T01:45:49.212Z,2.90
2022-12-09T01:48:18.626Z,2.97
2022-12-09T01:50:48.021Z,2.67
2022-12-09T01:53:15.356Z,2.70
2022-12-09T01:55:42.109Z,2.70
2022-12-09T01:58:09.286Z,2.43
2022-12-09T02:00:36.482Z,2.70
2022-12-09T02:03:05.816Z,2.70
2022-12-09T02:05:34.329Z,2.40
2022-12-09T02:08:01.374Z,2.67
2022-12-09T02:10:28.683Z,2.40
2022-12-09T02:13:35.739Z,2.97
2022-12-09T02:16:04.096Z,2.50
2022-12-09T02:18:30.886Z,2.60
2022-12-09T02:21:03.927Z,2.87
2022-12-09T02:23:38.230Z,2.70
2022-12-09T02:26:24.680Z,2.30
2022-12-09T02:28:57.560Z,2.73
2022-12-09T02:31:27.209Z,2.40
2022-12-09T02:34:12.890Z,2.90
2022-12-09T02:37:18.305Z,3.20
2022-12-09T02:40:11.195Z,2.83
2022-12-09T02:42:41.269Z,3.30
2022-12-09T02:45:10.060Z,3.00
2022-12-09T02:47:43.155Z,3.00
2022-12-09T02:50:14.951Z,2.80
2022-12-09T02:52:42.824Z,3.90
2022-12-09T02:55:10.902Z,3.67
2022-12-09T02:57:40.059Z,3.30
2022-12-09T03:00:09.352Z,3.63
2022-12-09T03:02:37.584Z,3.10
2022-12-09T03:05:23.191Z,3.20
2022-12-09T03:07:50.704Z,3.10
2022-12-09T03:10:20.192Z,3.30
2022-12-09T03:12:50.720Z,3.70
2022-12-09T03:15:19.797Z,3.17
2022-12-09T03:17:46.868Z,3.10
2022-12-09T03:20:21.025Z,3.60
2022-12-09T03:22:48.266Z,3.43
2022-12-09T03:25:18.310Z,3.53
2022-12-09T03:28:04.645Z,4.40
2022-12-09T03:30:33.357Z,4.10
2022-12-09T03:33:00.416Z,3.60
2022-12-09T03:35:30.450Z,4.00
2022-12-09T03:37:58.784Z,4.00
2022-12-09T03:40:27.614Z,3.73
2022-12-09T03:43:02.981Z,3.40
2022-12-09T03:45:30.217Z,3.63
2022-12-09T03:47:57.253Z,3.83
2022-12-09T03:50:25.922Z,3.87
2022-12-09T03:53:18.577Z,3.43
2022-12-09T03:55:51.582Z,3.70
2022-12-09T03:58:18.173Z,3.90
2022-12-09T04:00:44.891Z,3.50
2022-12-09T04:03:12.990Z,3.80
2022-12-09T04:05:39.682Z,3.80
2022-12-09T04:08:06.371Z,4.63
2022-12-09T04:10:33.283Z,3.87
2022-12-09T04:12:59.813Z,4.30
2022-12-09T04:15:26.384Z,3.73
2022-12-09T04:17:53.286Z,3.63
2022-12-09T04:20:20.090Z,3.13
2022-12-09T04:22:46.891Z,3.37
2022-12-09T04:25:13.788Z,3.50
2022-12-09T04:27:40.329Z,3.90
2022-12-09T04:30:07.434Z,3.70
2022-12-09T04:32:34.483Z,3.80
2022-12-09T04:35:01.572Z,3.80
2022-12-09T04:37:28.283Z,3.97
2022-12-09T04:39:55.358Z,3.43
2022-12-09T04:42:21.963Z,3.53
2022-12-09T04:44:48.461Z,3.50
2022-12-09T04:47:15.086Z,4.17
2022-12-09T04:49:41.609Z,4.03
2022-12-09T04:52:08.123Z,3.37
2022-12-09T04:54:34.697Z,3.30
2022-12-09T04:57:01.242Z,3.30
2022-12-09T04:59:30.200Z,3.67
2022-12-09T05:01:57.206Z,2.97
2022-12-09T05:04:24.104Z,3.53
2022-12-09T05:06:50.858Z,4.23
2022-12-09T05:09:17.596Z,4.70
2022-12-09T05:11:44.320Z,4.30
2022-12-09T05:14:10.921Z,4.20
2022-12-09T05:16:37.994Z,4.17
2022-12-09T05:19:04.809Z,4.37
2022-12-09T05:21:31.511Z,5.00
2022-12-09T05:23:58.383Z,4.43
2022-12-09T05:26:25.159Z,3.93
2022-12-09T05:28:52.617Z,3.97
2022-12-09T05:31:21.184Z,3.80
2022-12-09T05:33:48.765Z,3.23
2022-12-09T05:36:17.015Z,3.47
2022-12-09T05:38:43.919Z,3.73
2022-12-09T05:41:11.291Z,3.83
2022-12-09T05:43:39.507Z,4.20
2022-12-09T05:46:06.964Z,3.23
2022-12-09T05:48:34.367Z,4.27
2022-12-09T05:51:02.778Z,4.07
2022-12-09T05:53:30.377Z,4.27
2022-12-09T05:55:57.435Z,4.17
2022-12-09T05:58:24.612Z,3.77
2022-12-09T06:00:51.515Z,5.60
2022-12-09T06:03:18.334Z,4.33
2022-12-09T06:05:45.914Z,4.40
2022-12-09T06:08:12.754Z,5.03
2022-12-09T06:10:40.410Z,4.17
2022-12-09T06:13:07.368Z,4.50
2022-12-09T06:15:35.112Z,5.23
2022-12-09T06:18:02.150Z,10.93
2022-12-09T06:20:29.219Z,8.70
2022-12-09T06:22:55.898Z,6.23
2022-12-09T06:25:22.656Z,5.70
2022-12-09T06:27:49.270Z,5.87
2022-12-09T06:30:16.176Z,6.22
2022-12-09T06:32:43.143Z,5.80
2022-12-09T06:35:10.188Z,5.93
2022-12-09T06:37:37.406Z,6.20
2022-12-09T06:40:04.589Z,6.63
2022-12-09T06:42:31.307Z,7.60
2022-12-09T06:44:58.154Z,7.30
2022-12-09T06:47:24.885Z,7.73
2022-12-09T06:49:51.766Z,8.27
2022-12-09T06:52:18.509Z,7.73
2022-12-09T06:54:45.072Z,10.17
2022-12-09T06:57:11.574Z,9.70
2022-12-09T06:59:38.250Z,8.63
2022-12-09T07:02:04.864Z,8.57
2022-12-09T07:04:32.320Z,7.40
2022-12-09T07:06:59.187Z,8.53
2022-12-09T07:09:26.154Z,8.17
2022-12-09T07:11:52.910Z,8.60
2022-12-09T07:14:20.102Z,9.50
2022-12-09T07:16:47.112Z,8.77
2022-12-09T07:19:19.111Z,9.30
2022-12-09T07:21:46.203Z,8.17
2022-12-09T07:24:13.309Z,8.47
2022-12-09T07:26:40.167Z,7.97
2022-12-09T07:29:07.272Z,8.20
2022-12-09T07:31:34.580Z,8.17
2022-12-09T07:34:01.957Z,7.90
2022-12-09T07:36:29.678Z,8.20
2022-12-09T07:39:01.638Z,7.63
2022-12-09T07:41:28.363Z,8.30
2022-12-09T07:43:55.186Z,7.37
2022-12-09T07:46:23.354Z,7.60
2022-12-09T07:48:50.335Z,8.43
2022-12-09T07:51:17.175Z,7.83
2022-12-09T07:53:44.588Z,7.57
2022-12-09T07:56:13.382Z,8.10
2022-12-09T07:58:40.369Z,9.77
2022-12-09T08:01:07.569Z,10.93
2022-12-09T08:03:35.027Z,11.73
2022-12-09T08:06:02.575Z,9.30
2022-12-09T08:08:30.101Z,9.53
2022-12-09T08:11:05.991Z,8.70
2022-12-09T08:13:32.900Z,8.30
2022-12-09T08:16:07.052Z,9.40
2022-12-09T08:18:34.417Z,7.93
2022-12-09T08:21:04.806Z,8.57
2022-12-09T08:23:32.213Z,8.73
2022-12-09T08:25:59.355Z,8.37
2022-12-09T08:28:26.878Z,8.17
2022-12-09T08:30:53.980Z,8.47
2022-12-09T08:33:20.832Z,8.37
2022-12-09T08:35:47.614Z,9.67
2022-12-09T08:38:14.900Z,10.87
2022-12-09T08:40:41.523Z,10.80
2022-12-09T08:43:09.009Z,11.37
2022-12-09T08:45:36.607Z,11.67
2022-12-09T08:48:04.010Z,11.10
2022-12-09T08:50:31.093Z,10.80
2022-12-09T08:52:58.175Z,11.43
2022-12-09T08:55:24.718Z,9.40
2022-12-09T08:57:51.361Z,9.60
2022-12-09T09:00:18.976Z,10.03
2022-12-09T09:02:45.899Z,9.27
2022-12-09T09:05:13.532Z,13.27
2022-12-09T09:07:40.790Z,10.43
2022-12-09T09:10:08.603Z,10.03
2022-12-09T09:12:42.087Z,8.80
2022-12-09T09:15:10.520Z,9.47
2022-12-09T09:17:37.733Z,10.13
2022-12-09T09:20:05.040Z,10.47
2022-12-09T09:22:31.948Z,9.17
2022-12-09T09:24:58.927Z,10.80
2022-12-09T09:27:25.629Z,12.63
2022-12-09T09:29:52.368Z,12.70
2022-12-09T09:32:19.532Z,12.70
2022-12-09T09:34:48.580Z,11.53
2022-12-09T09:37:15.977Z,11.37
2022-12-09T09:39:43.306Z,10.63
2022-12-09T09:42:16.527Z,10.87
2022-12-09T09:44:53.554Z,11.43
2022-12-09T09:47:41.820Z,11.97
2022-12-09T09:50:17.883Z,12.17
2022-12-09T09:52:44.817Z,12.77
2022-12-09T09:55:16.126Z,11.87
2022-12-09T09:57:45.821Z,11.17
2022-12-09T10:00:23.748Z,12.00
2022-12-09T10:02:58.236Z,10.80
2022-12-09T10:05:31.727Z,12.00
2022-12-09T10:08:04.935Z,12.30
2022-12-09T10:10:39.192Z,11.07
2022-12-09T10:13:17.940Z,10.17
2022-12-09T10:15:51.392Z,10.57
2022-12-09T10:18:32.039Z,9.80
2022-12-09T10:20:58.962Z,12.20
2022-12-09T10:23:26.134Z,11.20
2022-12-09T10:25:55.143Z,11.60
2022-12-09T10:28:24.697Z,12.70
2022-12-09T10:30:52.887Z,10.70
2022-12-09T10:33:25.856Z,10.67
2022-12-09T10:35:52.755Z,11.43
2022-12-09T10:38:20.230Z,11.43
2022-12-09T10:40:47.173Z,10.67
2022-12-09T10:43:40.265Z,10.40
2022-12-09T10:46:17.803Z,11.63
2022-12-09T10:48:47.866Z,11.10
2022-12-09T10:51:18.635Z,10.30
2022-12-09T10:53:48.718Z,11.20
2022-12-09T10:56:20.164Z,10.63
2022-12-09T10:58:46.759Z,10.90
2022-12-09T11:01:16.075Z,10.43
2022-12-09T11:03:50.750Z,9.80
2022-12-09T11:06:23.226Z,10.23
2022-12-09T11:08:52.432Z,11.77
2022-12-09T11:11:19.796Z,11.33
2022-12-09T11:13:46.782Z,9.37
2022-12-09T11:16:13.582Z,9.80
2022-12-09T11:18:45.654Z,8.73
2022-12-09T11:21:29.867Z,9.87
2022-12-09T11:24:02.970Z,9.70
2022-12-09T11:26:35.208Z,9.30
2022-12-09T11:29:20.296Z,8.70
2022-12-09T11:31:47.342Z,8.43
2022-12-09T11:34:26.241Z,9.20
2022-12-09T11:36:54.375Z,8.23
2022-12-09T11:39:32.900Z,8.90
2022-12-09T11:42:18.202Z,8.03
2022-12-09T11:44:48.454Z,8.70
2022-12-09T11:47:21.027Z,9.37
2022-12-09T11:49:52.733Z,9.53
2022-12-09T11:52:19.272Z,9.30
2022-12-09T11:55:05.597Z,9.33
2022-12-09T11:57:38.283Z,10.00
2022-12-09T12:00:13.480Z,9.27
2022-12-09T12:02:50.885Z,9.10
2022-12-09T12:05:21.647Z,10.70
2022-12-09T12:08:00.882Z,10.93
2022-12-09T12:10:35.084Z,10.53
2022-12-09T12:13:06.128Z,11.50
2022-12-09T12:15:32.624Z,12.83
2022-12-09T12:18:00.320Z,12.33
2022-12-09T12:20:45.417Z,12.30
2022-12-09T12:23:18.802Z,12.60
2022-12-09T12:25:50.652Z,12.67
2022-12-09T12:28:29.477Z,13.80
2022-12-09T12:31:14.480Z,13.60
2022-12-09T12:36:30.166Z,12.53
2022-12-09T12:39:22.909Z,13.30
2022-12-09T12:41:55.675Z,14.03
2022-12-09T12:44:40.967Z,13.87
2022-12-09T12:47:13.771Z,13.83
2022-12-09T12:49:43.161Z,13.07
2022-12-09T12:52:26.333Z,18.47
2022-12-09T12:55:17.389Z,15.77
2022-12-09T12:58:02.921Z,15.23
2022-12-09T13:00:35.768Z,16.40
2022-12-09T13:03:11.386Z,21.63
2022-12-09T13:05:40.761Z,19.73
2022-12-09T13:08:30.506Z,17.13
2022-12-09T13:10:59.317Z,14.30
2022-12-09T13:13:29.647Z,14.73
2022-12-09T13:16:01.757Z,13.00
2022-12-09T13:18:30.691Z,13.13
2022-12-09T13:21:01.492Z,14.00
2022-12-09T13:23:40.201Z,13.70
2022-12-09T13:26:12.838Z,13.37
2022-12-09T13:28:57.770Z,14.27
2022-12-09T13:31:29.185Z,14.30
2022-12-09T13:33:55.762Z,14.67
2022-12-09T13:36:41.613Z,14.97
2022-12-09T13:39:09.882Z,13.53
2022-12-09T13:41:57.615Z,15.20
2022-12-09T13:44:29.267Z,14.00
2022-12-09T13:47:12.413Z,14.47
2022-12-09T13:49:39.036Z,14.43
2022-12-09T13:52:05.635Z,15.57
2022-12-09T13:54:32.305Z,15.97
2022-12-09T13:57:04.530Z,15.20
2022-12-09T13:59:36.530Z,15.13
2022-12-09T14:02:09.150Z,16.40
2022-12-09T14:04:42.173Z,15.57
2022-12-09T14:07:14.759Z,16.83
2022-12-09T14:09:44.064Z,15.07
2022-12-09T14:12:14.758Z,16.33
2022-12-09T14:14:44.276Z,16.53
2022-12-09T14:17:19.722Z,17.20
2022-12-09T14:20:05.012Z,19.90
2022-12-09T14:22:33.063Z,17.37
2022-12-09T14:25:19.512Z,17.90
2022-12-09T14:28:04.755Z,18.40
2022-12-09T14:30:31.250Z,18.53
2022-12-09T14:32:57.875Z,17.27
2022-12-09T14:35:38.650Z,18.90
2022-12-09T14:38:23.170Z,19.37
2022-12-09T14:40:53.616Z,20.07
2022-12-09T14:43:26.142Z,22.67
2022-12-09T14:45:57.776Z,19.60
2022-12-09T14:48:26.234Z,21.10
2022-12-09T14:51:06.613Z,22.50
2022-12-09T14:53:34.705Z,21.13
2022-12-09T14:56:01.466Z,21.87
2022-12-09T14:58:28.030Z,20.50
2022-12-09T15:01:02.346Z,20.00
2022-12-09T15:03:36.945Z,19.43
2022-12-09T15:06:12.380Z,20.03
2022-12-09T15:08:41.718Z,20.80
2022-12-09T15:11:10.132Z,20.77
2022-12-09T15:13:37.789Z,19.87
2022-12-09T15:16:08.910Z,19.87
2022-12-09T15:18:37.326Z,19.73
2022-12-09T15:21:03.884Z,20.00
2022-12-09T15:23:33.251Z,17.57
2022-12-09T15:26:01.941Z,21.47
2022-12-09T15:28:29.986Z,19.93
2022-12-09T15:31:00.998Z,19.60
2022-12-09T15:33:29.303Z,18.30
2022-12-09T15:35:57.759Z,18.50
2022-12-09T15:38:25.690Z,18.77
2022-12-09T15:41:25.871Z,17.80
2022-12-09T15:43:55.365Z,18.30
2022-12-09T15:46:22.498Z,18.60
2022-12-09T15:48:52.124Z,17.67
2022-12-09T15:51:20.513Z,16.20
2022-12-09T15:53:56.551Z,16.23
2022-12-09T15:56:32.421Z,16.57
2022-12-09T15:59:01.942Z,16.07
2022-12-09T16:01:30.298Z,16.60
2022-12-09T16:03:58.108Z,15.27
2022-12-09T16:06:27.127Z,15.43
2022-12-09T16:08:53.714Z,15.43
2022-12-09T16:11:37.030Z,16.37
2022-12-09T16:14:03.568Z,16.20
2022-12-09T16:16:34.185Z,15.47
2022-12-09T16:19:00.886Z,16.70
2022-12-09T16:21:29.031Z,16.23
2022-12-09T16:23:56.600Z,14.60
2022-12-09T16:26:23.123Z,15.30
2022-12-09T16:28:54.142Z,14.63
2022-12-09T16:31:20.846Z,15.03
2022-12-09T16:33:48.970Z,16.17
2022-12-09T16:36:18.164Z,16.87
2022-12-09T16:38:57.063Z,17.63
2022-12-09T16:41:43.515Z,19.57
2022-12-09T16:44:17.540Z,17.87
2022-12-09T16:46:44.096Z,19.83
2022-12-09T16:49:10.685Z,18.33
2022-12-09T16:51:38.494Z,17.77
2022-12-09T16:54:06.401Z,26.17
2022-12-09T16:56:33.184Z,22.53
2022-12-09T16:58:59.828Z,18.33
2022-12-09T17:01:29.549Z,17.57
2022-12-09T17:03:56.051Z,19.17
2022-12-09T17:06:22.623Z,20.93
2022-12-09T17:08:49.249Z,17.83
2022-12-09T17:11:17.235Z,22.73
2022-12-09T17:13:43.785Z,24.37
2022-12-09T17:16:10.440Z,20.93
2022-12-09T17:18:37.015Z,21.50
2022-12-09T17:21:05.444Z,22.13
2022-12-09T17:23:37.707Z,23.10
2022-12-09T17:26:06.964Z,22.37
2022-12-09T17:28:35.345Z,22.73
2022-12-09T17:31:02.070Z,21.43
2022-12-09T17:33:29.624Z,22.00
2022-12-09T17:35:56.319Z,22.77
2022-12-09T17:38:23.106Z,21.73
2022-12-09T17:40:49.804Z,36.10
2022-12-09T17:43:16.428Z,25.80
2022-12-09T17:45:43.082Z,24.60
2022-12-09T17:48:09.621Z,23.60
2022-12-09T17:50:39.923Z,23.23
2022-12-09T17:53:06.997Z,24.80
2022-12-09T17:55:33.517Z,23.70
2022-12-09T17:58:00.110Z,29.60
2022-12-09T18:00:26.606Z,25.13
2022-12-09T18:02:53.096Z,24.43
2022-12-09T18:05:20.149Z,25.70
2022-12-09T18:07:46.778Z,23.67
2022-12-09T18:10:13.335Z,23.80
2022-12-09T18:12:40.167Z,24.70
2022-12-09T18:15:06.945Z,24.47
2022-12-09T18:17:34.087Z,23.33
2022-12-09T18:20:00.848Z,24.70
2022-12-09T18:22:27.411Z,23.23
2022-12-09T18:24:54.816Z,23.63
2022-12-09T18:27:21.353Z,24.17
2022-12-09T18:29:47.911Z,23.47
2022-12-09T18:32:15.197Z,28.07
2022-12-09T18:34:42.014Z,26.47
2022-12-09T18:37:08.621Z,25.63
2022-12-09T18:39:35.199Z,25.63
2022-12-09T18:42:01.741Z,24.73
2022-12-09T18:44:28.554Z,22.57
2022-12-09T18:46:55.036Z,23.20
2022-12-09T18:49:23.570Z,23.07
2022-12-09T18:51:51.152Z,23.67
2022-12-09T18:54:19.439Z,21.90
2022-12-09T18:56:46.352Z,24.07
2022-12-09T18:59:12.853Z,23.57
2022-12-09T19:01:44.133Z,22.83
2022-12-09T19:04:31.104Z,23.23
2022-12-09T19:06:58.757Z,23.70
2022-12-09T19:09:35.334Z,23.37
2022-12-09T19:12:22.879Z,25.23
2022-12-09T19:14:49.687Z,21.97
2022-12-09T19:17:16.388Z,23.93
2022-12-09T19:19:45.542Z,23.10
2022-12-09T19:22:12.161Z,21.47
2022-12-09T19:24:42.939Z,22.03
2022-12-09T19:27:10.399Z,22.20
2022-12-09T19:29:37.313Z,22.50
2022-12-09T19:32:04.321Z,22.87
2022-12-09T19:34:32.311Z,20.90
2022-12-09T19:37:00.101Z,22.07
2022-12-09T19:39:30.185Z,21.90
2022-12-09T19:42:00.241Z,22.20
2022-12-09T19:47:14.407Z,28.57
2022-12-09T19:49:42.628Z,23.93
2022-12-09T19:52:09.475Z,22.93
2022-12-09T19:54:35.975Z,23.80
2022-12-09T19:57:02.825Z,22.20
2022-12-09T19:59:29.494Z,23.23
2022-12-09T20:01:56.405Z,22.37
2022-12-09T20:07:10.781Z,25.30
2022-12-09T20:09:37.482Z,23.10
2022-12-09T20:12:04.171Z,21.97
2022-12-09T20:14:30.712Z,22.87
2022-12-09T20:16:57.325Z,23.40
2022-12-09T20:19:24.695Z,21.80
2022-12-09T20:21:51.202Z,21.93
2022-12-09T20:24:17.824Z,22.73
2022-12-09T20:26:44.846Z,21.37
2022-12-09T20:29:11.935Z,21.90
2022-12-09T20:31:39.106Z,22.90
2022-12-09T20:34:11.323Z,22.47
2022-12-09T20:36:39.614Z,22.13
2022-12-09T20:39:11.240Z,22.10
2022-12-09T20:41:38.190Z,21.53
2022-12-09T20:44:04.806Z,20.87
2022-12-09T20:46:32.265Z,21.47
2022-12-09T20:48:59.266Z,22.30
2022-12-09T20:51:30.426Z,22.90
2022-12-09T20:53:57.417Z,25.83
2022-12-09T20:56:24.842Z,23.77
2022-12-09T20:58:53.666Z,23.33
2022-12-09T21:01:21.668Z,23.20
2022-12-09T21:03:48.972Z,22.77
2022-12-09T21:06:16.352Z,23.43
2022-12-09T21:08:43.346Z,23.83
2022-12-09T21:11:11.356Z,22.23
2022-12-09T21:13:41.886Z,20.43
2022-12-09T21:16:13.307Z,21.63
2022-12-09T21:18:39.871Z,20.47
2022-12-09T21:21:06.360Z,21.43
2022-12-09T21:23:35.014Z,20.83
2022-12-09T21:26:11.925Z,21.40
2022-12-09T21:28:38.804Z,20.50
2022-12-09T21:31:09.696Z,20.40
2022-12-09T21:33:36.474Z,20.97
2022-12-09T21:36:10.351Z,21.10
2022-12-09T21:38:37.361Z,21.23
2022-12-09T21:41:07.901Z,21.97
2022-12-09T21:43:34.901Z,20.17
2022-12-09T21:46:11.946Z,19.70
2022-12-09T21:48:38.939Z,21.03
2022-12-09T21:51:05.792Z,21.67
2022-12-09T21:53:32.705Z,21.07
2022-12-09T21:56:03.103Z,22.57
2022-12-09T21:58:31.028Z,21.50
2022-12-09T22:00:58.247Z,21.93
2022-12-09T22:03:25.265Z,21.90
2022-12-09T22:05:58.032Z,20.37
2022-12-09T22:08:25.624Z,20.80
2022-12-09T22:10:52.881Z,21.40
2022-12-09T22:13:19.806Z,21.30
2022-12-09T22:15:46.357Z,20.67
2022-12-09T22:18:12.891Z,20.63
2022-12-09T22:21:23.481Z,21.10
2022-12-09T22:23:25.998Z,20.90
2022-12-09T22:25:52.476Z,19.57
2022-12-09T22:28:19.258Z,21.77
2022-12-09T22:30:45.789Z,21.43
2022-12-09T22:33:12.284Z,21.20
2022-12-09T22:35:38.831Z,20.50
2022-12-09T22:38:11.761Z,20.53
2022-12-09T22:40:40.842Z,21.57
2022-12-09T22:43:07.904Z,20.77
2022-12-09T22:45:37.546Z,20.13
2022-12-09T22:48:04.293Z,19.83
2022-12-09T22:50:30.871Z,20.20
2022-12-09T22:52:57.434Z,21.53
2022-12-09T22:55:23.935Z,21.50
2022-12-09T22:57:51.859Z,22.30
2022-12-09T23:00:18.746Z,21.17
2022-12-09T23:02:45.436Z,22.43
2022-12-09T23:05:12.036Z,21.80
2022-12-09T23:07:38.581Z,21.80
2022-12-09T23:10:05.663Z,21.93
2022-12-09T23:12:32.342Z,27.58
2022-12-09T23:14:58.847Z,22.27
2022-12-09T23:17:25.385Z,21.90
2022-12-09T23:19:52.061Z,21.67
2022-12-09T23:22:19.234Z,22.53
2022-12-09T23:24:47.400Z,21.93
2022-12-09T23:27:13.897Z,23.30
2022-12-09T23:29:40.564Z,21.87
2022-12-09T23:32:07.102Z,21.37
2022-12-09T23:34:33.676Z,22.63
2022-12-09T23:37:00.181Z,22.57
2022-12-09T23:39:27.216Z,23.53
2022-12-09T23:41:54.459Z,22.80
2022-12-09T23:44:21.068Z,23.70
2022-12-09T23:46:48.030Z,23.40
2022-12-09T23:49:14.880Z,23.57
2022-12-09T23:51:43.880Z,23.97
2022-12-09T23:54:11.066Z,22.70
2022-12-09T23:56:40.422Z,23.10
2022-12-09T23:59:08.003Z,23.17
